»·PEaware :: N48427 KOTH-KEUG

N48427 :: KOTH-KEUG

FLIGHT INFORMATION

Flight Status: Arrived
Operator: Privately registered:
United States
More flights under this callsign
Pilot: Paul T. (5885)
Aircraft: Unknown
(P28U)
More flights by this aircraft type
Origin: KOTH North Bend Mun
United States
Destination: KEUG Mahlon Sweet
United States
More flights between these airports :: More routes between these airports
Route: OTH6 OTH V121 EUG
File this flight plan on PilotEdge
Remarks:
Altitude:
(Current/Filed)
7,000ft
Speed:
(Current/Filed)
150kts
Departed: 13-Nov-18 04:01 PM
Arrived: 13-Nov-18 04:34 PM
Distance/Time
Traveled:
62nm/0:32
Distance/Time
To Go:
Arrived

Flight Plot

Page will automatically refresh every two minutes.

Flight plan parsing failed; only flown route is shown


Map Options




Map Legend


Flown Route
Filed Route
Departure Airport
Arrival Airport
Navaid (VOR, NDB)
Fix

Horizontal Profiles

Position Reports

Time Latitude Longitude Heading Altitude Ground
Speed
13-Nov-18 15:42 43.415508 -124.245648 330 24ft 0kts
13-Nov-18 15:43 43.415508 -124.245648 330 24ft 0kts
13-Nov-18 15:44 43.415508 -124.245648 330 24ft 0kts
13-Nov-18 15:45 43.415508 -124.245648 330 24ft 0kts
13-Nov-18 15:46 43.415508 -124.245648 330 24ft 0kts
13-Nov-18 15:47 43.415508 -124.245648 330 24ft 0kts
13-Nov-18 15:48 43.415508 -124.245648 330 24ft 0kts
13-Nov-18 15:49 43.415508 -124.245648 330 24ft 0kts
13-Nov-18 15:50 43.415508 -124.245648 330 24ft 0kts
13-Nov-18 15:51 43.415508 -124.245648 330 24ft 0kts
13-Nov-18 15:52 43.415508 -124.245648 330 24ft 0kts
13-Nov-18 15:53 43.415508 -124.245648 330 24ft 0kts
13-Nov-18 15:54 43.415677 -124.245662 23 24ft 5kts
13-Nov-18 15:55 43.414829 -124.243664 150 20ft 12kts
13-Nov-18 15:56 43.411416 -124.240921 150 15ft 13kts
13-Nov-18 15:57 43.409308 -124.239264 153 12ft 0kts
13-Nov-18 15:58 43.409308 -124.239264 153 12ft 0kts
13-Nov-18 15:59 43.409308 -124.239264 153 12ft 0kts
13-Nov-18 16:00 43.409308 -124.239264 153 12ft 0kts
13-Nov-18 16:01 43.409308 -124.239264 153 12ft 0kts
13-Nov-18 16:02 43.409224 -124.239188 143 12ft 4kts
13-Nov-18 16:03 43.409468 -124.238025 345 9ft 8kts
13-Nov-18 16:04 43.425333 -124.251481 326 601ft 94kts
13-Nov-18 16:05 43.422979 -124.279266 235 1622ft 95kts
13-Nov-18 16:06 43.424405 -124.295501 60 2694ft 105kts
13-Nov-18 16:07 43.419113 -124.252597 96 3506ft 124kts
13-Nov-18 16:08 43.419171 -124.201510 96 4185ft 130kts
13-Nov-18 16:09 43.419859 -124.156924 54 5188ft 121kts
13-Nov-18 16:10 43.443604 -124.125523 39 6138ft 125kts
13-Nov-18 16:11 43.469218 -124.090542 35 6912ft 145kts
13-Nov-18 16:12 43.498055 -124.048530 48 7064ft 165kts
13-Nov-18 16:13 43.529851 -124.004903 39 7163ft 167kts
13-Nov-18 16:14 43.568565 -123.973955 29 7202ft 167kts
13-Nov-18 16:15 43.599950 -123.929226 53 7262ft 165kts
13-Nov-18 16:16 43.635560 -123.889560 18 6961ft 174kts
13-Nov-18 16:17 43.676675 -123.864361 11 6938ft 157kts
13-Nov-18 16:18 43.709478 -123.825109 48 6760ft 170kts
13-Nov-18 16:19 43.735143 -123.776772 65 6972ft 164kts
13-Nov-18 16:20 43.753532 -123.723056 44 6961ft 166kts
13-Nov-18 16:21 43.783892 -123.680854 39 7355ft 150kts
13-Nov-18 16:22 43.815028 -123.636444 45 7064ft 178kts
13-Nov-18 16:23 43.849993 -123.587918 42 6751ft 177kts
13-Nov-18 16:24 43.886113 -123.544268 42 6206ft 179kts
13-Nov-18 16:25 43.920598 -123.499752 58 5740ft 169kts
13-Nov-18 16:26 43.950024 -123.452194 39 5225ft 172kts
13-Nov-18 16:27 43.986694 -123.414750 42 4643ft 136kts
13-Nov-18 16:28 44.006981 -123.387482 57 3685ft 91kts
13-Nov-18 16:29 44.021814 -123.363963 55 2587ft 82kts
13-Nov-18 16:30 44.033976 -123.338845 59 1881ft 77kts
13-Nov-18 16:31 44.044142 -123.314321 62 1630ft 79kts
13-Nov-18 16:32 44.055061 -123.286423 62 1291ft 81kts
13-Nov-18 16:33 44.066037 -123.260734 52 962ft 76kts
13-Nov-18 16:34 44.078336 -123.236587 52 920ft 75kts
13-Nov-18 16:35 44.094328 -123.219584 9 742ft 73kts
13-Nov-18 16:36 44.114397 -123.218817 1 367ft 59kts
13-Nov-18 16:37 44.120924 -123.217712 85 363ft 0kts
13-Nov-18 16:38 44.119957 -123.217027 134 363ft 5kts
13-Nov-18 16:39 44.121177 -123.213941 57 363ft 10kts
13-Nov-18 16:40 44.122686 -123.211554 45 363ft 4kts
13-Nov-18 16:41 44.122873 -123.211339 28 363ft 0kts

Navigation Log

Ident Type
Flight plan parsing failed, navigation log unavailable